createdAt,value
2019-01-06T00:00:12.791Z,7.24
2019-01-06T00:01:00.968Z,7.28
2019-01-06T00:01:54.913Z,7.26
2019-01-06T00:02:51.774Z,7.29
2019-01-06T00:03:46.246Z,7.28
2019-01-06T00:04:49.143Z,7.27
2019-01-06T00:05:41.748Z,7.24
2019-01-06T00:06:35.381Z,7.30
2019-01-06T00:07:28.394Z,7.27
2019-01-06T00:08:14.308Z,7.28
2019-01-06T00:09:10.480Z,7.27
2019-01-06T00:10:04.360Z,7.23
2019-01-06T00:11:10.328Z,7.27
2019-01-06T00:12:09.655Z,7.27
2019-01-06T00:13:12.924Z,7.22
2019-01-06T00:14:06.591Z,7.26
2019-01-06T00:15:06.894Z,7.26
2019-01-06T00:15:59.231Z,7.25
2019-01-06T00:17:04.010Z,7.26
2019-01-06T00:18:03.519Z,7.25
2019-01-06T00:18:55.819Z,7.24
2019-01-06T00:19:50.054Z,7.26
2019-01-06T00:20:42.532Z,7.30
2019-01-06T00:21:39.628Z,7.29
2019-01-06T00:22:35.100Z,7.28
2019-01-06T00:23:29.217Z,7.26
2019-01-06T00:24:38.496Z,7.18
2019-01-06T00:25:31.095Z,7.24
2019-01-06T00:26:43.169Z,7.27
2019-01-06T00:27:35.536Z,7.23
2019-01-06T00:28:28.828Z,7.24
2019-01-06T00:29:19.840Z,7.20
2019-01-06T00:30:12.605Z,7.21
2019-01-06T00:31:09.880Z,7.27
2019-01-06T00:31:56.405Z,7.26
2019-01-06T00:32:52.838Z,7.23
2019-01-06T00:33:50.181Z,7.25
2019-01-06T00:34:36.148Z,7.26
2019-01-06T00:35:40.934Z,7.28
2019-01-06T00:36:40.589Z,7.23
2019-01-06T00:37:40.302Z,7.22
2019-01-06T00:38:42.855Z,7.24
2019-01-06T00:39:45.465Z,7.25
2019-01-06T00:40:39.241Z,7.25
2019-01-06T00:41:31.528Z,7.23
2019-01-06T00:42:35.319Z,7.22
2019-01-06T00:43:28.357Z,7.25
2019-01-06T00:44:36.631Z,7.25
2019-01-06T00:45:36.852Z,7.25
2019-01-06T00:46:37.078Z,7.24
2019-01-06T00:47:40.785Z,7.22
2019-01-06T00:48:40.635Z,7.18
2019-01-06T00:49:34.017Z,7.18
2019-01-06T00:50:32.281Z,7.15
2019-01-06T00:51:35.024Z,7.17
2019-01-06T00:52:29.384Z,7.17
2019-01-06T00:53:21.372Z,7.18
2019-01-06T00:54:21.673Z,7.17
2019-01-06T00:55:27.760Z,7.11
2019-01-06T00:56:20.811Z,7.16
2019-01-06T00:57:20.775Z,7.20
2019-01-06T00:58:13.303Z,7.20
2019-01-06T00:59:00.523Z,7.15
2019-01-06T00:59:45.988Z,7.13
2019-01-06T01:00:40.180Z,7.14
2019-01-06T01:01:37.339Z,7.08
2019-01-06T01:02:34.577Z,7.08
2019-01-06T01:03:34.263Z,7.12
2019-01-06T01:04:27.575Z,7.14
2019-01-06T01:05:24.799Z,7.06
2019-01-06T01:06:16.189Z,7.03
2019-01-06T01:07:21.858Z,7.05
2019-01-06T01:08:15.118Z,7.08
2019-01-06T01:09:14.925Z,7.13
2019-01-06T01:10:21.597Z,7.16
2019-01-06T01:11:15.475Z,7.11
2019-01-06T01:12:18.139Z,7.08
2019-01-06T01:13:11.236Z,7.07
2019-01-06T01:14:07.714Z,7.07
2019-01-06T01:15:14.216Z,7.08
2019-01-06T01:16:06.633Z,7.09
2019-01-06T01:17:15.387Z,7.01
2019-01-06T01:18:08.393Z,7.03
2019-01-06T01:19:11.650Z,7.03
2019-01-06T01:20:11.360Z,7.03
2019-01-06T01:21:04.057Z,7.06
2019-01-06T01:22:10.354Z,7.00
2019-01-06T01:23:03.079Z,7.06
2019-01-06T01:24:02.745Z,7.04
2019-01-06T01:25:03.644Z,6.93
2019-01-06T01:25:48.451Z,7.00
2019-01-06T01:26:51.469Z,6.97
2019-01-06T01:28:02.994Z,6.99
2019-01-06T01:29:12.427Z,6.98
2019-01-06T01:30:11.859Z,6.95
2019-01-06T01:31:04.981Z,6.96
2019-01-06T01:32:07.818Z,6.98
2019-01-06T01:33:11.105Z,6.96
2019-01-06T01:34:09.789Z,6.94
2019-01-06T01:35:07.349Z,6.88
2019-01-06T01:36:01.055Z,6.88
2019-01-06T01:36:53.685Z,6.93
2019-01-06T01:37:46.443Z,6.86
2019-01-06T01:38:36.689Z,6.94
2019-01-06T01:39:39.715Z,6.92
2019-01-06T01:40:31.960Z,6.95
2019-01-06T01:41:20.053Z,6.90
2019-01-06T01:42:23.095Z,6.92
2019-01-06T01:43:16.151Z,6.96
2019-01-06T01:44:10.197Z,6.97
2019-01-06T01:45:11.957Z,6.97
2019-01-06T01:46:05.950Z,7.00
2019-01-06T01:46:51.661Z,6.96
2019-01-06T01:47:43.731Z,6.89
2019-01-06T01:48:45.987Z,6.93
2019-01-06T01:49:57.870Z,6.95
2019-01-06T01:50:52.525Z,6.95
2019-01-06T01:51:43.947Z,6.97
2019-01-06T01:52:34.925Z,6.92
2019-01-06T01:53:27.652Z,6.90
2019-01-06T01:54:17.048Z,6.89
2019-01-06T01:55:09.685Z,6.99
2019-01-06T01:56:11.123Z,6.95
2019-01-06T01:57:10.177Z,6.96
2019-01-06T01:58:02.833Z,6.99
2019-01-06T01:58:55.576Z,6.99
2019-01-06T01:59:49.204Z,6.95
2019-01-06T02:01:01.539Z,6.91
2019-01-06T02:01:55.534Z,6.89
2019-01-06T02:02:47.798Z,6.93
2019-01-06T02:03:53.207Z,6.94
2019-01-06T02:04:49.858Z,6.91
2019-01-06T02:05:37.529Z,6.97
2019-01-06T02:06:28.913Z,6.95
2019-01-06T02:07:25.845Z,6.95
2019-01-06T02:08:18.158Z,6.95
2019-01-06T02:09:10.693Z,6.97
2019-01-06T02:10:23.401Z,6.96
2019-01-06T02:11:23.109Z,6.89
2019-01-06T02:12:29.060Z,6.86
2019-01-06T02:13:33.407Z,6.87
2019-01-06T02:14:30.533Z,6.87
2019-01-06T02:15:22.855Z,6.86
2019-01-06T02:16:25.824Z,6.89
2019-01-06T02:17:35.742Z,6.88
2019-01-06T02:18:41.504Z,6.93
2019-01-06T02:19:46.019Z,6.87
2019-01-06T02:20:35.956Z,6.90
2019-01-06T02:21:29.707Z,6.89
2019-01-06T02:22:23.785Z,6.93
2019-01-06T02:23:20.170Z,6.87
2019-01-06T02:24:07.887Z,6.90
2019-01-06T02:25:20.159Z,6.95
2019-01-06T02:26:23.030Z,6.87
2019-01-06T02:27:15.881Z,6.88
2019-01-06T02:28:16.619Z,6.85
2019-01-06T02:29:10.262Z,6.85
2019-01-06T02:30:11.826Z,6.95
2019-01-06T02:31:04.205Z,6.93
2019-01-06T02:31:57.390Z,6.93
2019-01-06T02:32:50.320Z,6.92
2019-01-06T02:33:40.554Z,6.92
2019-01-06T02:34:33.395Z,6.91
2019-01-06T02:35:26.022Z,6.92
2019-01-06T02:36:22.564Z,6.93
2019-01-06T02:37:14.980Z,6.89
2019-01-06T02:38:27.069Z,6.99
2019-01-06T02:39:20.901Z,6.94
2019-01-06T02:40:17.832Z,6.95
2019-01-06T02:41:10.281Z,6.95
2019-01-06T02:42:10.270Z,6.91
2019-01-06T02:43:02.688Z,6.94
2019-01-06T02:43:52.895Z,6.95
2019-01-06T02:44:55.302Z,6.99
2019-01-06T02:45:50.646Z,6.92
2019-01-06T02:46:44.738Z,6.91
2019-01-06T02:47:47.501Z,6.91
2019-01-06T02:48:41.708Z,6.88
2019-01-06T02:49:33.997Z,6.92
2019-01-06T02:50:27.851Z,6.93
2019-01-06T02:51:24.099Z,6.90
2019-01-06T02:52:16.972Z,6.87
2019-01-06T02:53:20.282Z,6.87
2019-01-06T02:54:19.643Z,6.92
2019-01-06T02:55:12.230Z,6.93
2019-01-06T02:56:24.085Z,6.94
2019-01-06T02:57:23.775Z,6.92
2019-01-06T02:58:26.603Z,6.89
2019-01-06T02:59:19.296Z,6.83
2019-01-06T03:00:12.168Z,6.85
2019-01-06T03:00:58.555Z,6.85
2019-01-06T03:01:51.725Z,6.85
2019-01-06T03:02:43.778Z,6.85
2019-01-06T03:03:37.859Z,6.89
2019-01-06T03:04:44.015Z,6.94
2019-01-06T03:05:43.801Z,6.87
2019-01-06T03:06:55.775Z,6.92
2019-01-06T03:07:44.169Z,6.93
2019-01-06T03:08:50.796Z,6.96
2019-01-06T03:09:47.550Z,6.91
2019-01-06T03:10:39.693Z,6.92
2019-01-06T03:11:39.485Z,6.94
2019-01-06T03:12:35.290Z,6.92
2019-01-06T03:13:41.516Z,6.92
2019-01-06T03:14:23.459Z,6.99
2019-01-06T03:15:15.263Z,6.95
2019-01-06T03:16:07.781Z,6.97
2019-01-06T03:17:05.111Z,6.94
2019-01-06T03:17:58.767Z,7.00
2019-01-06T03:18:52.439Z,6.91
2019-01-06T03:19:53.432Z,6.91
2019-01-06T03:20:45.859Z,6.92
2019-01-06T03:21:42.559Z,6.96
2019-01-06T03:22:45.835Z,6.94
2019-01-06T03:23:42.651Z,6.93
2019-01-06T03:24:54.608Z,6.91
2019-01-06T03:25:52.562Z,6.93
2019-01-06T03:26:50.751Z,6.93
2019-01-06T03:27:50.967Z,6.98
2019-01-06T03:28:51.003Z,6.99
2019-01-06T03:29:53.791Z,6.96
2019-01-06T03:30:58.152Z,6.99
2019-01-06T03:31:52.141Z,6.98
2019-01-06T03:32:58.459Z,6.98
2019-01-06T03:34:01.915Z,6.94
2019-01-06T03:34:55.572Z,6.97
2019-01-06T03:35:50.200Z,6.95
2019-01-06T03:36:42.910Z,6.96
2019-01-06T03:37:36.552Z,6.93
2019-01-06T03:38:28.947Z,6.93
2019-01-06T03:39:25.388Z,6.93
2019-01-06T03:40:29.087Z,6.99
2019-01-06T03:41:29.207Z,7.01
2019-01-06T03:42:23.031Z,6.97
2019-01-06T03:43:19.436Z,6.94
2019-01-06T03:44:15.904Z,6.96
2019-01-06T03:45:13.634Z,6.96
2019-01-06T03:46:10.031Z,6.99
2019-01-06T03:47:02.439Z,6.98
2019-01-06T03:47:54.798Z,6.97
2019-01-06T03:48:54.697Z,6.96
2019-01-06T03:49:44.870Z,6.96
2019-01-06T03:50:53.475Z,6.94
2019-01-06T03:51:46.815Z,6.96
2019-01-06T03:52:55.579Z,6.96
2019-01-06T03:53:49.764Z,6.93
2019-01-06T03:54:46.931Z,6.86
2019-01-06T03:55:40.599Z,6.89
2019-01-06T03:56:50.044Z,6.93
2019-01-06T03:57:42.455Z,6.96
2019-01-06T03:58:36.561Z,6.93
2019-01-06T03:59:45.845Z,6.94
2019-01-06T04:00:39.221Z,6.90
2019-01-06T04:01:31.640Z,6.89
2019-01-06T04:02:24.535Z,6.89
2019-01-06T04:03:33.822Z,6.92
2019-01-06T04:04:30.787Z,6.91
2019-01-06T04:05:28.448Z,6.89
2019-01-06T04:06:20.347Z,6.90
2019-01-06T04:07:23.833Z,6.92
2019-01-06T04:08:29.912Z,6.96
2019-01-06T04:09:38.860Z,6.94
2019-01-06T04:10:31.255Z,6.86
2019-01-06T04:11:24.017Z,6.93
2019-01-06T04:12:20.819Z,6.93
2019-01-06T04:13:33.176Z,6.93
2019-01-06T04:14:26.177Z,6.93
2019-01-06T04:15:12.483Z,6.93
2019-01-06T04:16:15.241Z,6.93
2019-01-06T04:17:08.929Z,6.99
2019-01-06T04:18:12.014Z,6.96
2019-01-06T04:19:04.692Z,6.97
2019-01-06T04:19:58.357Z,6.95
2019-01-06T04:20:50.716Z,6.99
2019-01-06T04:21:50.277Z,7.00
2019-01-06T04:22:42.733Z,6.97
2019-01-06T04:23:39.545Z,6.94
2019-01-06T04:24:37.044Z,6.93
2019-01-06T04:25:38.655Z,6.92
2019-01-06T04:26:39.099Z,6.96
2019-01-06T04:27:32.601Z,6.92
2019-01-06T04:28:30.700Z,6.95
2019-01-06T04:29:19.707Z,6.95
2019-01-06T04:30:12.375Z,6.95
2019-01-06T04:31:04.631Z,6.98
2019-01-06T04:32:10.821Z,6.93
2019-01-06T04:33:20.273Z,6.98
2019-01-06T04:34:14.031Z,6.95
2019-01-06T04:35:06.687Z,6.95
2019-01-06T04:36:00.070Z,6.96
2019-01-06T04:37:06.209Z,6.99
2019-01-06T04:37:58.952Z,6.97
2019-01-06T04:38:55.339Z,6.96
2019-01-06T04:39:44.817Z,6.96
2019-01-06T04:40:37.426Z,6.95
2019-01-06T04:41:34.238Z,6.95
2019-01-06T04:42:27.924Z,6.95
2019-01-06T04:43:23.873Z,6.92
2019-01-06T04:44:23.769Z,6.89
2019-01-06T04:45:21.591Z,6.90
2019-01-06T04:46:21.335Z,6.90
2019-01-06T04:47:14.110Z,6.93
2019-01-06T04:48:26.748Z,6.91
2019-01-06T04:49:23.311Z,6.93
2019-01-06T04:50:20.544Z,6.95
2019-01-06T04:51:13.578Z,6.94
2019-01-06T04:52:13.067Z,6.93
2019-01-06T04:53:11.037Z,6.93
2019-01-06T04:54:08.360Z,6.92
2019-01-06T04:55:00.870Z,6.91
2019-01-06T04:55:58.036Z,6.91
2019-01-06T04:56:50.860Z,6.91
2019-01-06T04:57:50.689Z,6.86
2019-01-06T04:58:38.712Z,6.89
2019-01-06T04:59:36.203Z,6.93
2019-01-06T05:00:28.525Z,6.91
2019-01-06T05:01:21.438Z,6.95
2019-01-06T05:02:18.810Z,6.93
2019-01-06T05:03:11.995Z,6.91
2019-01-06T05:04:05.656Z,6.92
2019-01-06T05:04:59.379Z,6.94
2019-01-06T05:06:02.375Z,6.92
2019-01-06T05:06:55.414Z,6.88
2019-01-06T05:07:48.519Z,6.90
2019-01-06T05:08:41.862Z,6.94
2019-01-06T05:09:34.575Z,6.92
2019-01-06T05:10:34.043Z,6.89
2019-01-06T05:11:26.952Z,6.89
2019-01-06T05:12:32.834Z,6.89
2019-01-06T05:13:42.353Z,6.85
2019-01-06T05:14:43.684Z,6.93
2019-01-06T05:15:36.547Z,6.92
2019-01-06T05:16:28.827Z,6.88
2019-01-06T05:17:21.895Z,6.87
2019-01-06T05:18:21.677Z,6.92
2019-01-06T05:19:14.523Z,6.94
2019-01-06T05:20:14.897Z,6.98
2019-01-06T05:21:07.974Z,6.96
2019-01-06T05:22:02.232Z,6.92
2019-01-06T05:22:55.192Z,6.94
2019-01-06T05:23:49.156Z,6.92
2019-01-06T05:24:42.194Z,6.94
2019-01-06T05:25:36.092Z,6.96
2019-01-06T05:26:45.152Z,6.95
2019-01-06T05:27:50.530Z,6.87
2019-01-06T05:28:42.995Z,6.93
2019-01-06T05:29:36.042Z,6.88
2019-01-06T05:30:41.676Z,6.88
2019-01-06T05:31:38.065Z,6.89
2019-01-06T05:32:28.269Z,6.88
2019-01-06T05:33:24.841Z,6.85
2019-01-06T05:34:30.450Z,6.84
2019-01-06T05:35:22.944Z,6.88
2019-01-06T05:36:28.609Z,6.89
2019-01-06T05:37:29.309Z,6.88
2019-01-06T05:38:24.799Z,6.85
2019-01-06T05:39:24.807Z,6.90
2019-01-06T05:40:22.980Z,6.88
2019-01-06T05:41:17.034Z,6.89
2019-01-06T05:42:26.367Z,6.88
2019-01-06T05:43:23.131Z,6.94
2019-01-06T05:44:13.062Z,6.96
2019-01-06T05:45:07.440Z,6.93
2019-01-06T05:46:00.045Z,6.91
2019-01-06T05:47:06.041Z,6.94
2019-01-06T05:48:06.262Z,6.94
2019-01-06T05:48:58.550Z,6.92
2019-01-06T05:49:48.892Z,6.92
2019-01-06T05:50:41.413Z,6.92
2019-01-06T05:51:44.896Z,6.87
2019-01-06T05:52:37.797Z,6.88
2019-01-06T05:53:40.915Z,6.86
2019-01-06T05:54:50.278Z,6.87
2019-01-06T05:55:38.388Z,6.87
2019-01-06T05:56:38.679Z,6.83
2019-01-06T05:57:33.516Z,6.88
2019-01-06T05:58:36.607Z,6.90
2019-01-06T05:59:36.365Z,6.92
2019-01-06T06:00:32.837Z,6.90
2019-01-06T06:01:25.243Z,6.89
2019-01-06T06:02:21.987Z,6.89
2019-01-06T06:03:14.260Z,6.86
2019-01-06T06:04:07.148Z,6.91
2019-01-06T06:04:59.707Z,6.95
2019-01-06T06:05:49.390Z,6.92
2019-01-06T06:06:42.116Z,6.92
2019-01-06T06:07:37.234Z,6.92
2019-01-06T06:08:31.325Z,6.95
2019-01-06T06:09:24.156Z,6.93
2019-01-06T06:10:10.326Z,6.93
2019-01-06T06:11:02.624Z,6.92
2019-01-06T06:11:55.547Z,6.86
2019-01-06T06:12:47.987Z,6.87
2019-01-06T06:13:47.492Z,6.83
2019-01-06T06:14:40.736Z,6.91
2019-01-06T06:15:40.815Z,6.91
2019-01-06T06:16:33.728Z,6.95
2019-01-06T06:17:25.040Z,6.91
2019-01-06T06:18:37.523Z,6.95
2019-01-06T06:19:30.226Z,6.93
2019-01-06T06:20:18.438Z,6.87
2019-01-06T06:21:18.287Z,6.88
2019-01-06T06:22:11.300Z,6.83
2019-01-06T06:23:05.205Z,6.83
2019-01-06T06:24:05.391Z,6.89
2019-01-06T06:24:47.921Z,6.89
2019-01-06T06:25:50.522Z,6.83
2019-01-06T06:26:42.572Z,6.85
2019-01-06T06:27:51.400Z,6.89
2019-01-06T06:28:52.706Z,6.82
2019-01-06T06:29:55.263Z,6.86
2019-01-06T06:30:48.195Z,6.86
2019-01-06T06:31:42.691Z,6.86
2019-01-06T06:32:42.878Z,6.86
2019-01-06T06:33:36.574Z,6.87
2019-01-06T06:34:27.372Z,6.89
2019-01-06T06:35:19.727Z,6.90
2019-01-06T06:36:08.553Z,6.86
2019-01-06T06:37:08.814Z,6.89
2019-01-06T06:38:12.295Z,6.88
2019-01-06T06:39:06.710Z,6.80
2019-01-06T06:40:13.149Z,6.82
2019-01-06T06:41:07.421Z,6.83
2019-01-06T06:42:16.561Z,6.83
2019-01-06T06:43:09.381Z,6.80
2019-01-06T06:44:06.026Z,6.80
2019-01-06T06:44:58.527Z,6.81
2019-01-06T06:45:51.657Z,6.78
2019-01-06T06:46:54.445Z,6.79
2019-01-06T06:47:47.172Z,6.80
2019-01-06T06:48:41.418Z,6.86
2019-01-06T06:49:43.953Z,6.81
2019-01-06T06:50:36.824Z,6.85
2019-01-06T06:51:37.425Z,6.80
2019-01-06T06:52:36.191Z,6.86
2019-01-06T06:53:35.699Z,6.88
2019-01-06T06:54:28.325Z,6.85
2019-01-06T06:55:28.104Z,6.75
2019-01-06T06:56:34.028Z,6.82
2019-01-06T06:58:15.512Z,6.81
2019-01-06T06:59:10.037Z,6.83
2019-01-06T07:00:48.339Z,6.80
2019-01-06T07:02:28.632Z,6.77
2019-01-06T07:03:40.504Z,6.75
2019-01-06T07:04:33.478Z,6.75
2019-01-06T07:05:39.792Z,6.71
2019-01-06T07:06:32.812Z,6.72
2019-01-06T07:07:25.552Z,6.71
2019-01-06T07:08:28.994Z,6.72
2019-01-06T07:09:22.134Z,6.68
2019-01-06T07:10:16.241Z,6.68
2019-01-06T07:11:18.908Z,6.65
2019-01-06T07:12:24.434Z,6.69
2019-01-06T07:13:17.264Z,6.67
2019-01-06T07:14:13.408Z,6.64
2019-01-06T07:15:00.442Z,6.63
2019-01-06T07:15:52.757Z,6.65
2019-01-06T07:17:21.608Z,6.67
2019-01-06T07:18:26.448Z,6.65
2019-01-06T07:19:23.175Z,6.71
2019-01-06T07:20:29.404Z,6.72
2019-01-06T07:21:26.228Z,6.71
2019-01-06T07:22:32.472Z,6.67
2019-01-06T07:23:25.336Z,6.73
2019-01-06T07:24:27.996Z,6.67
2019-01-06T07:25:22.059Z,6.65
2019-01-06T07:26:28.302Z,6.61
2019-01-06T07:27:21.299Z,6.59
2019-01-06T07:28:14.556Z,6.63
2019-01-06T07:29:07.313Z,6.71
2019-01-06T07:30:04.629Z,6.72
2019-01-06T07:31:01.717Z,6.68
2019-01-06T07:31:51.000Z,6.64
2019-01-06T07:32:47.701Z,6.65
2019-01-06T07:33:41.468Z,6.72
2019-01-06T07:34:38.745Z,6.68
2019-01-06T07:35:51.322Z,6.66
2019-01-06T07:36:57.469Z,6.73
2019-01-06T07:38:06.389Z,6.67
2019-01-06T07:38:58.896Z,6.58
2019-01-06T07:39:59.561Z,6.66
2019-01-06T07:40:59.006Z,6.63
2019-01-06T07:42:02.564Z,6.64
2019-01-06T07:42:49.363Z,6.68
2019-01-06T07:43:58.532Z,6.68
2019-01-06T07:44:55.426Z,6.73
2019-01-06T07:45:55.991Z,6.69
2019-01-06T07:46:54.419Z,6.68
2019-01-06T07:47:48.388Z,6.74
2019-01-06T07:48:38.921Z,6.71
2019-01-06T07:49:32.552Z,6.71
2019-01-06T07:50:24.523Z,6.69
2019-01-06T07:51:12.266Z,6.68
2019-01-06T07:52:04.704Z,6.73
2019-01-06T07:53:05.327Z,6.76
2019-01-06T07:53:58.967Z,6.68
2019-01-06T07:55:01.964Z,6.74
2019-01-06T07:55:55.002Z,6.72
2019-01-06T07:57:04.093Z,6.69
2019-01-06T07:58:07.815Z,6.64
2019-01-06T07:59:10.357Z,6.63
2019-01-06T08:00:16.717Z,6.68
2019-01-06T08:01:25.972Z,6.62
2019-01-06T08:02:32.807Z,6.71
2019-01-06T08:03:42.025Z,6.82
2019-01-06T08:04:27.361Z,6.94
2019-01-06T08:05:20.364Z,6.81
2019-01-06T08:06:29.553Z,6.87
2019-01-06T08:07:23.550Z,6.99
2019-01-06T08:08:15.785Z,6.92
2019-01-06T08:09:24.631Z,6.87
2019-01-06T08:10:30.579Z,6.79
2019-01-06T08:11:26.938Z,6.86
2019-01-06T08:12:19.061Z,6.81
2019-01-06T08:13:19.011Z,6.82
2019-01-06T08:14:12.691Z,6.73
2019-01-06T08:15:07.153Z,6.75
2019-01-06T08:15:59.668Z,6.75
2019-01-06T08:16:56.991Z,6.83
2019-01-06T08:17:59.581Z,6.75
2019-01-06T08:18:56.092Z,6.79
2019-01-06T08:19:48.899Z,6.74
2019-01-06T08:20:42.917Z,6.85
2019-01-06T08:21:35.890Z,6.80
2019-01-06T08:22:39.254Z,6.79
2019-01-06T08:23:33.042Z,6.79
2019-01-06T08:24:36.364Z,6.77
2019-01-06T08:25:45.222Z,6.77
2019-01-06T08:26:38.939Z,6.78
2019-01-06T08:27:45.141Z,6.81
2019-01-06T08:29:04.643Z,6.79
2019-01-06T08:30:20.406Z,6.84
2019-01-06T08:31:41.650Z,6.82
2019-01-06T08:32:42.517Z,6.80
2019-01-06T08:33:52.653Z,6.85
2019-01-06T08:34:55.891Z,6.83
2019-01-06T08:36:21.563Z,6.76
2019-01-06T08:37:24.106Z,6.77
2019-01-06T08:38:19.864Z,6.73
2019-01-06T08:39:16.455Z,6.73
2019-01-06T08:40:19.550Z,6.77
2019-01-06T08:41:13.141Z,6.85
2019-01-06T08:42:05.812Z,6.89
2019-01-06T08:43:01.505Z,6.74
2019-01-06T08:44:02.718Z,6.78
2019-01-06T08:45:08.624Z,6.81
2019-01-06T08:46:21.037Z,6.83
2019-01-06T08:47:23.846Z,6.80
2019-01-06T08:48:16.532Z,6.77
2019-01-06T08:49:11.036Z,6.79
2019-01-06T08:50:15.742Z,6.77
2019-01-06T08:51:31.983Z,6.74
2019-01-06T08:52:32.246Z,6.71
2019-01-06T08:53:27.691Z,6.75
2019-01-06T08:54:21.654Z,6.79
2019-01-06T08:55:16.682Z,6.82
2019-01-06T08:56:13.525Z,6.85
2019-01-06T08:57:16.609Z,6.78
2019-01-06T08:59:35.614Z,6.75
2019-01-06T09:00:28.769Z,6.79
2019-01-06T09:01:21.531Z,6.76
2019-01-06T09:02:14.698Z,6.77
2019-01-06T09:03:32.891Z,6.77
2019-01-06T09:04:42.589Z,6.82
2019-01-06T09:05:37.008Z,6.83
2019-01-06T09:06:29.591Z,6.87
2019-01-06T09:07:27.430Z,6.82
2019-01-06T09:08:20.816Z,6.76
2019-01-06T09:09:09.887Z,6.87
2019-01-06T09:10:04.167Z,6.91
2019-01-06T09:11:04.478Z,6.85
2019-01-06T09:12:07.749Z,6.85
2019-01-06T09:13:31.995Z,6.88
2019-01-06T09:14:45.732Z,6.87
2019-01-06T09:15:57.708Z,6.84
2019-01-06T09:17:00.704Z,6.86
2019-01-06T09:18:04.605Z,6.88
2019-01-06T09:19:05.164Z,6.80
2019-01-06T09:19:58.190Z,6.91
2019-01-06T09:20:55.451Z,6.88
2019-01-06T09:21:57.818Z,6.88
2019-01-06T09:22:56.699Z,6.89
2019-01-06T09:23:49.578Z,6.94
2019-01-06T09:24:42.805Z,6.99
2019-01-06T09:25:40.964Z,6.94
2019-01-06T09:26:30.874Z,6.99
2019-01-06T09:27:23.357Z,6.95
2019-01-06T09:28:19.759Z,7.00
2019-01-06T09:29:20.047Z,6.95
2019-01-06T09:30:12.741Z,6.95
2019-01-06T09:32:16.762Z,6.95
2019-01-06T09:33:17.056Z,6.95
2019-01-06T09:34:10.906Z,7.04
2019-01-06T09:35:16.856Z,7.03
2019-01-06T09:36:16.613Z,7.05
2019-01-06T09:37:11.039Z,7.01
2019-01-06T09:38:10.530Z,7.03
2019-01-06T09:39:18.537Z,7.00
2019-01-06T09:40:10.862Z,6.87
2019-01-06T09:41:17.742Z,6.94
2019-01-06T09:42:17.835Z,6.91
2019-01-06T09:43:07.343Z,6.97
2019-01-06T09:44:10.468Z,6.92
2019-01-06T09:45:25.630Z,6.91
2019-01-06T09:46:22.273Z,6.97
2019-01-06T09:47:30.850Z,6.99
2019-01-06T09:48:23.876Z,7.01
2019-01-06T09:49:26.540Z,6.92
2019-01-06T09:50:20.370Z,6.88
2019-01-06T09:51:14.692Z,6.99
2019-01-06T09:52:16.466Z,7.02
2019-01-06T09:53:13.249Z,7.04
2019-01-06T09:54:07.342Z,7.04
2019-01-06T09:55:01.042Z,7.04
2019-01-06T09:56:07.530Z,7.07
2019-01-06T09:57:00.001Z,6.94
2019-01-06T09:57:48.639Z,6.97
2019-01-06T09:58:35.537Z,6.96
2019-01-06T09:59:29.615Z,7.03
2019-01-06T10:00:32.564Z,7.03
2019-01-06T10:01:24.967Z,6.99
2019-01-06T10:02:09.867Z,6.98
2019-01-06T10:03:09.593Z,7.00
2019-01-06T10:04:02.235Z,7.03
2019-01-06T10:05:05.125Z,6.97
2019-01-06T10:06:16.243Z,7.05
2019-01-06T10:07:09.734Z,7.00
2019-01-06T10:08:07.081Z,7.08
2019-01-06T10:08:59.839Z,7.06
2019-01-06T10:09:45.878Z,7.11
2019-01-06T10:10:52.475Z,7.11
2019-01-06T10:11:44.851Z,7.10
2019-01-06T10:12:51.100Z,7.09
2019-01-06T10:13:57.001Z,7.11
2019-01-06T10:14:52.245Z,7.08
2019-01-06T10:15:58.219Z,7.15
2019-01-06T10:16:54.640Z,7.14
2019-01-06T10:17:46.794Z,7.07
2019-01-06T10:18:43.250Z,7.13
2019-01-06T10:19:29.542Z,7.16
2019-01-06T10:20:27.224Z,7.15
2019-01-06T10:21:36.820Z,7.21
2019-01-06T10:22:36.782Z,7.18
2019-01-06T10:23:31.121Z,7.17
2019-01-06T10:24:37.266Z,7.18
2019-01-06T10:25:30.990Z,7.07
2019-01-06T10:26:26.331Z,7.09
2019-01-06T10:27:26.646Z,7.08
2019-01-06T10:28:19.738Z,7.13
2019-01-06T10:29:12.210Z,7.16
2019-01-06T10:30:15.012Z,7.18
2019-01-06T10:31:07.424Z,7.12
2019-01-06T10:31:59.303Z,7.14
2019-01-06T10:32:52.325Z,7.22
2019-01-06T10:33:49.155Z,7.24
2019-01-06T10:34:52.362Z,7.22
2019-01-06T10:35:48.376Z,7.23
2019-01-06T10:38:39.484Z,7.24
2019-01-06T10:40:18.197Z,7.23
2019-01-06T10:41:35.695Z,7.25
2019-01-06T10:43:00.449Z,7.27
2019-01-06T10:44:22.596Z,7.34
2019-01-06T10:45:53.259Z,7.34
2019-01-06T10:47:16.101Z,7.36
2019-01-06T10:48:39.447Z,7.32
2019-01-06T10:50:24.375Z,7.31
2019-01-06T10:51:57.038Z,7.33
2019-01-06T10:53:32.750Z,7.35
2019-01-06T10:54:55.138Z,7.29
2019-01-06T10:56:37.836Z,7.26
2019-01-06T10:58:01.507Z,7.35
2019-01-06T10:59:40.118Z,7.35
2019-01-06T11:01:22.952Z,7.38
2019-01-06T11:02:45.875Z,7.39
2019-01-06T11:04:08.432Z,7.37
2019-01-06T11:05:34.511Z,7.26
2019-01-06T11:06:58.579Z,7.36
2019-01-06T11:08:29.043Z,7.34
2019-01-06T11:10:02.246Z,7.40
2019-01-06T11:11:38.317Z,7.44
2019-01-06T11:13:01.080Z,7.47
2019-01-06T11:14:30.550Z,7.47
2019-01-06T11:15:59.823Z,7.47
2019-01-06T11:17:39.299Z,7.49
2019-01-06T11:19:05.954Z,7.45
2019-01-06T11:20:32.552Z,7.48
2019-01-06T11:22:04.988Z,7.56
2019-01-06T11:23:42.661Z,7.54
2019-01-06T11:25:09.024Z,7.55
2019-01-06T11:26:38.871Z,7.60
2019-01-06T11:28:08.716Z,7.55
2019-01-06T11:29:32.130Z,7.55
2019-01-06T11:30:55.200Z,7.53
2019-01-06T11:32:24.891Z,7.59
2019-01-06T11:33:47.990Z,7.59
2019-01-06T11:35:21.137Z,7.61
2019-01-06T11:36:44.113Z,7.56
2019-01-06T11:38:06.363Z,7.54
2019-01-06T11:39:29.208Z,7.54
2019-01-06T11:41:12.105Z,7.57
2019-01-06T11:42:28.877Z,7.50
2019-01-06T11:43:44.268Z,7.54
2019-01-06T11:45:07.633Z,7.59
2019-01-06T11:46:30.398Z,7.52
2019-01-06T11:48:12.419Z,7.50
2019-01-06T11:49:39.326Z,7.57
2019-01-06T11:51:02.242Z,7.50
2019-01-06T11:52:26.076Z,7.57
2019-01-06T11:53:48.691Z,7.60
2019-01-06T11:55:22.372Z,7.61
2019-01-06T11:56:46.038Z,7.61
2019-01-06T11:58:09.402Z,7.55
2019-01-06T11:59:38.836Z,7.53
2019-01-06T12:01:04.750Z,7.68
2019-01-06T12:02:38.785Z,7.66
2019-01-06T12:03:55.515Z,7.71
2019-01-06T12:05:28.640Z,7.76
2019-01-06T12:06:51.066Z,7.81
2019-01-06T12:08:15.100Z,7.77
2019-01-06T12:09:37.364Z,7.91
2019-01-06T12:11:13.279Z,7.90
2019-01-06T12:12:43.269Z,7.79
2019-01-06T12:14:07.251Z,7.87
2019-01-06T12:15:36.837Z,7.88
2019-01-06T12:16:58.284Z,7.89
2019-01-06T12:18:22.327Z,7.94
2019-01-06T12:19:45.962Z,7.99
2019-01-06T12:21:03.970Z,7.96
2019-01-06T12:22:27.703Z,7.99
2019-01-06T12:23:49.471Z,7.87
2019-01-06T12:25:12.091Z,7.81
2019-01-06T12:26:38.835Z,7.93
2019-01-06T12:28:02.953Z,7.92
2019-01-06T12:29:25.206Z,7.92
2019-01-06T12:31:07.605Z,7.84
2019-01-06T12:32:47.045Z,7.73
2019-01-06T12:34:23.256Z,7.87
2019-01-06T12:35:46.562Z,7.86
2019-01-06T12:37:09.632Z,7.93
2019-01-06T12:38:40.459Z,7.83
2019-01-06T12:40:10.629Z,7.85
2019-01-06T12:41:31.656Z,7.85
2019-01-06T12:42:55.978Z,7.86
2019-01-06T12:44:18.957Z,7.95
2019-01-06T12:45:55.239Z,7.90
2019-01-06T12:47:19.258Z,7.85
2019-01-06T12:48:41.839Z,7.86
2019-01-06T12:50:09.252Z,7.79
2019-01-06T12:51:43.526Z,7.85
2019-01-06T12:53:05.013Z,7.84
2019-01-06T12:54:41.146Z,7.92
2019-01-06T12:56:12.705Z,7.95
2019-01-06T12:57:45.504Z,7.92
2019-01-06T12:59:08.474Z,7.87
2019-01-06T13:00:35.672Z,7.87
2019-01-06T13:01:57.921Z,7.85
2019-01-06T13:03:24.893Z,7.89
2019-01-06T13:05:04.550Z,7.93
2019-01-06T13:06:28.894Z,7.88
2019-01-06T13:07:55.410Z,7.91
2019-01-06T13:09:37.681Z,7.99
2019-01-06T13:11:07.433Z,7.93
2019-01-06T13:12:40.330Z,7.97
2019-01-06T13:14:03.228Z,7.93
2019-01-06T13:15:26.916Z,7.96
2019-01-06T13:16:50.649Z,7.95
2019-01-06T13:18:13.242Z,7.91
2019-01-06T13:19:43.723Z,7.95
2019-01-06T13:21:07.367Z,8.01
2019-01-06T13:22:31.872Z,7.98
2019-01-06T13:23:58.834Z,7.97
2019-01-06T13:25:37.836Z,8.02
2019-01-06T13:27:17.208Z,8.03
2019-01-06T13:28:39.669Z,8.04
2019-01-06T13:30:06.130Z,7.98
2019-01-06T13:31:33.508Z,8.00
2019-01-06T13:32:57.170Z,7.95
2019-01-06T13:34:20.639Z,7.91
2019-01-06T13:35:43.690Z,7.97
2019-01-06T13:37:10.523Z,7.94
2019-01-06T13:38:29.097Z,7.98
2019-01-06T13:40:01.624Z,7.97
2019-01-06T13:41:24.130Z,7.97
2019-01-06T13:42:47.753Z,7.94
2019-01-06T13:44:24.020Z,7.91
2019-01-06T13:45:51.048Z,7.89
2019-01-06T13:47:13.906Z,7.95
2019-01-06T13:48:50.663Z,7.93
2019-01-06T13:50:17.048Z,7.93
2019-01-06T13:51:43.889Z,7.92
2019-01-06T13:53:07.250Z,7.92
2019-01-06T13:54:30.337Z,7.92
2019-01-06T13:56:00.500Z,7.93
2019-01-06T13:57:19.807Z,7.90
2019-01-06T13:58:42.230Z,7.90
2019-01-06T14:00:19.134Z,7.90
2019-01-06T14:01:51.649Z,7.90
2019-01-06T14:03:15.638Z,7.87
2019-01-06T14:04:33.911Z,7.94